createdAt,value
2022-11-20T00:00:28.695Z,83
2022-11-20T00:02:59.150Z,83
2022-11-20T00:05:29.415Z,84
2022-11-20T00:08:00.420Z,84
2022-11-20T00:10:31.139Z,83
2022-11-20T00:13:01.980Z,83
2022-11-20T00:15:32.218Z,83
2022-11-20T00:18:02.633Z,83
2022-11-20T00:20:33.388Z,83
2022-11-20T00:23:03.983Z,83
2022-11-20T00:25:35.577Z,83
2022-11-20T00:28:05.886Z,83
2022-11-20T00:30:36.785Z,83
2022-11-20T00:33:07.440Z,83
2022-11-20T00:35:38.171Z,83
2022-11-20T00:38:09.177Z,83
2022-11-20T00:40:40.242Z,83
2022-11-20T00:43:10.830Z,82
2022-11-20T00:45:41.607Z,82
2022-11-20T00:48:12.134Z,83
2022-11-20T00:50:43.510Z,83
2022-11-20T00:53:13.986Z,83
2022-11-20T00:55:44.670Z,84
2022-11-20T00:58:15.779Z,84
2022-11-20T01:00:46.735Z,83
2022-11-20T01:03:20.468Z,84
2022-11-20T01:05:47.002Z,85
2022-11-20T01:08:17.937Z,84
2022-11-20T01:10:49.100Z,84
2022-11-20T01:13:25.450Z,84
2022-11-20T01:15:51.592Z,84
2022-11-20T01:18:22.437Z,84
2022-11-20T01:20:53.151Z,84
2022-11-20T01:23:23.899Z,84
2022-11-20T01:25:54.705Z,83
2022-11-20T01:28:25.405Z,84
2022-11-20T01:30:56.376Z,83
2022-11-20T01:33:27.150Z,83
2022-11-20T01:35:57.651Z,83
2022-11-20T01:38:28.591Z,83
2022-11-20T01:41:00.279Z,83
2022-11-20T01:43:31.596Z,83
2022-11-20T01:46:03.746Z,83
2022-11-20T01:48:34.675Z,83
2022-11-20T01:51:06.238Z,83
2022-11-20T01:53:36.654Z,83
2022-11-20T01:56:07.871Z,83
2022-11-20T01:58:38.157Z,83
2022-11-20T02:01:09.251Z,83
2022-11-20T02:03:42.855Z,83
2022-11-20T02:06:14.692Z,83
2022-11-20T02:08:45.819Z,83
2022-11-20T02:11:21.231Z,83
2022-11-20T02:13:52.841Z,83
2022-11-20T02:16:23.044Z,83
2022-11-20T02:18:54.844Z,83
2022-11-20T02:21:25.703Z,82
2022-11-20T02:24:00.117Z,82
2022-11-20T02:26:30.493Z,82
2022-11-20T02:29:04.122Z,83
2022-11-20T02:31:35.397Z,83
2022-11-20T02:34:07.116Z,83
2022-11-20T02:36:41.217Z,83
2022-11-20T02:39:13.325Z,83
2022-11-20T02:41:44.141Z,83
2022-11-20T02:44:15.016Z,83
2022-11-20T02:46:46.378Z,82
2022-11-20T02:49:17.200Z,82
2022-11-20T02:51:48.019Z,82
2022-11-20T02:54:19.291Z,82
2022-11-20T02:56:50.917Z,83
2022-11-20T02:59:22.502Z,83
2022-11-20T03:01:52.940Z,83
2022-11-20T03:04:23.756Z,83
2022-11-20T03:06:55.268Z,83
2022-11-20T03:09:26.739Z,83
2022-11-20T03:11:57.689Z,83
2022-11-20T03:14:29.067Z,83
2022-11-20T03:17:00.170Z,83
2022-11-20T03:19:31.900Z,83
2022-11-20T03:22:03.059Z,83
2022-11-20T03:24:34.496Z,83
2022-11-20T03:27:06.099Z,83
2022-11-20T03:29:37.199Z,83
2022-11-20T03:32:08.633Z,83
2022-11-20T03:34:39.373Z,83
2022-11-20T03:37:11.082Z,83
2022-11-20T03:39:42.155Z,83
2022-11-20T03:42:13.526Z,83
2022-11-20T03:44:45.021Z,83
2022-11-20T03:47:15.960Z,83
2022-11-20T03:49:47.528Z,83
2022-11-20T03:52:18.710Z,82
2022-11-20T03:54:50.175Z,82
2022-11-20T03:57:21.372Z,82
2022-11-20T03:59:53.001Z,83
2022-11-20T04:02:24.207Z,83
2022-11-20T04:04:55.454Z,83
2022-11-20T04:07:27.058Z,83
2022-11-20T04:09:58.420Z,82
2022-11-20T04:12:29.935Z,83
2022-11-20T04:15:01.310Z,83
2022-11-20T04:17:32.318Z,83
2022-11-20T04:20:03.683Z,83
2022-11-20T04:22:33.328Z,83
2022-11-20T04:25:04.503Z,84
2022-11-20T04:27:35.692Z,83
2022-11-20T04:30:07.264Z,83
2022-11-20T04:32:38.257Z,83
2022-11-20T04:35:09.337Z,83
2022-11-20T04:37:40.389Z,83
2022-11-20T04:40:11.880Z,83
2022-11-20T04:42:43.606Z,83
2022-11-20T04:45:15.346Z,83
2022-11-20T04:47:46.531Z,83
2022-11-20T04:50:18.040Z,83
2022-11-20T04:52:49.521Z,83
2022-11-20T04:55:20.734Z,83
2022-11-20T04:57:51.887Z,83
2022-11-20T05:00:22.925Z,83
2022-11-20T05:02:54.237Z,83
2022-11-20T05:05:24.934Z,83
2022-11-20T05:07:55.647Z,83
2022-11-20T05:10:26.206Z,83
2022-11-20T05:12:57.586Z,82
2022-11-20T05:15:34.646Z,83
2022-11-20T05:18:05.516Z,83
2022-11-20T05:20:36.824Z,83
2022-11-20T05:23:07.957Z,83
2022-11-20T05:25:39.258Z,83
2022-11-20T05:28:10.340Z,83
2022-11-20T05:30:42.042Z,83
2022-11-20T05:33:13.532Z,83
2022-11-20T05:35:44.680Z,83
2022-11-20T05:38:16.266Z,83
2022-11-20T05:40:47.667Z,83
2022-11-20T05:43:19.155Z,83
2022-11-20T05:45:50.589Z,83
2022-11-20T05:48:21.407Z,82
2022-11-20T05:50:52.807Z,82
2022-11-20T05:53:26.389Z,82
2022-11-20T05:55:54.914Z,82
2022-11-20T05:58:25.744Z,82
2022-11-20T06:00:57.103Z,83
2022-11-20T06:03:28.379Z,83
2022-11-20T06:05:59.191Z,82
2022-11-20T06:08:30.233Z,82
2022-11-20T06:11:00.834Z,82
2022-11-20T06:13:31.236Z,82
2022-11-20T06:16:01.804Z,83
2022-11-20T06:18:33.258Z,83
2022-11-20T06:21:03.445Z,82
2022-11-20T06:23:34.548Z,83
2022-11-20T06:26:05.557Z,83
2022-11-20T06:28:36.751Z,83
2022-11-20T06:31:07.792Z,82
2022-11-20T06:33:41.604Z,83
2022-11-20T06:36:17.150Z,83
2022-11-20T06:38:48.764Z,82
2022-11-20T06:41:20.261Z,83
2022-11-20T06:44:00.093Z,83
2022-11-20T06:46:31.650Z,83
2022-11-20T06:49:02.500Z,83
2022-11-20T06:51:31.463Z,82
2022-11-20T06:54:05.970Z,82
2022-11-20T06:56:36.868Z,83
2022-11-20T06:59:08.155Z,82
2022-11-20T07:01:38.865Z,82
2022-11-20T07:04:09.682Z,82
2022-11-20T07:06:40.920Z,82
2022-11-20T07:09:12.936Z,82
2022-11-20T07:11:42.419Z,83
2022-11-20T07:14:13.813Z,83
2022-11-20T07:16:44.678Z,83
2022-11-20T07:19:16.049Z,82
2022-11-20T07:21:46.666Z,83
2022-11-20T07:24:17.674Z,83
2022-11-20T07:26:48.362Z,83
2022-11-20T07:29:19.440Z,83
2022-11-20T07:31:51.194Z,83
2022-11-20T07:34:22.145Z,82
2022-11-20T07:36:53.321Z,82
2022-11-20T07:39:23.932Z,82
2022-11-20T07:41:54.905Z,82
2022-11-20T07:44:25.104Z,82
2022-11-20T07:46:55.779Z,82
2022-11-20T07:49:26.826Z,83
2022-11-20T07:52:01.790Z,82
2022-11-20T07:54:28.761Z,82
2022-11-20T07:56:59.326Z,82
2022-11-20T07:59:30.269Z,82
2022-11-20T08:02:01.355Z,82
2022-11-20T08:04:31.858Z,82
2022-11-20T08:07:06.650Z,82
2022-11-20T08:09:37.526Z,81
2022-11-20T08:12:06.585Z,81
2022-11-20T08:14:37.942Z,82
2022-11-20T08:17:08.590Z,81
2022-11-20T08:19:39.346Z,81
2022-11-20T08:22:09.868Z,81
2022-11-20T08:24:40.484Z,81
2022-11-20T08:27:13.137Z,81
2022-11-20T08:29:43.948Z,81
2022-11-20T08:32:14.792Z,81
2022-11-20T08:34:46.572Z,81
2022-11-20T08:37:18.031Z,81
2022-11-20T08:39:47.118Z,81
2022-11-20T08:42:18.476Z,81
2022-11-20T08:44:49.873Z,81
2022-11-20T08:47:20.939Z,80
2022-11-20T08:49:53.433Z,81
2022-11-20T08:52:24.945Z,81
2022-11-20T08:54:56.100Z,82
2022-11-20T08:57:27.375Z,82
2022-11-20T09:00:05.870Z,82
2022-11-20T09:02:30.671Z,82
2022-11-20T09:05:01.693Z,82
2022-11-20T09:07:32.906Z,82
2022-11-20T09:10:22.925Z,81
2022-11-20T09:12:35.762Z,81
2022-11-20T09:15:07.475Z,81
2022-11-20T09:17:38.563Z,81
2022-11-20T09:20:10.145Z,81
2022-11-20T09:22:41.578Z,80
2022-11-20T09:25:15.147Z,81
2022-11-20T09:27:46.052Z,80
2022-11-20T09:30:17.765Z,81
2022-11-20T09:32:49.549Z,80
2022-11-20T09:35:20.769Z,81
2022-11-20T09:37:51.832Z,81
2022-11-20T09:40:23.151Z,81
2022-11-20T09:42:54.530Z,81
2022-11-20T09:45:25.844Z,81
2022-11-20T09:47:56.923Z,81
2022-11-20T09:50:28.761Z,81
2022-11-20T09:53:00.050Z,81
2022-11-20T09:55:32.109Z,82
2022-11-20T09:58:04.415Z,82
2022-11-20T10:00:36.206Z,81
2022-11-20T10:03:07.478Z,82
2022-11-20T10:05:38.643Z,81
2022-11-20T10:08:10.684Z,81
2022-11-20T10:10:43.894Z,81
2022-11-20T10:13:13.788Z,81
2022-11-20T10:15:45.566Z,80
2022-11-20T10:18:17.166Z,81
2022-11-20T10:20:48.859Z,81
2022-11-20T10:23:24.389Z,81
2022-11-20T10:25:51.624Z,81
2022-11-20T10:28:22.908Z,81
2022-11-20T10:30:54.761Z,81
2022-11-20T10:33:25.968Z,81
2022-11-20T10:35:58.871Z,81
2022-11-20T10:38:30.555Z,81
2022-11-20T10:41:01.512Z,81
2022-11-20T10:43:33.335Z,81
2022-11-20T10:46:04.684Z,81
2022-11-20T10:48:35.732Z,81
2022-11-20T10:51:08.311Z,80
2022-11-20T10:53:40.397Z,81
2022-11-20T10:56:11.622Z,81
2022-11-20T10:58:43.592Z,81
2022-11-20T11:01:14.720Z,81
2022-11-20T11:03:46.569Z,81
2022-11-20T11:06:17.686Z,80
2022-11-20T11:08:50.147Z,80
2022-11-20T11:11:27.809Z,81
2022-11-20T11:13:59.004Z,80
2022-11-20T11:16:30.363Z,80
2022-11-20T11:19:02.058Z,80
2022-11-20T11:21:33.580Z,80
2022-11-20T11:24:20.125Z,80
2022-11-20T11:26:37.832Z,80
2022-11-20T11:29:08.680Z,80
2022-11-20T11:31:40.339Z,80
2022-11-20T11:34:11.414Z,81
2022-11-20T11:36:42.533Z,81
2022-11-20T11:39:14.131Z,81
2022-11-20T11:41:45.325Z,81
2022-11-20T11:44:16.532Z,80
2022-11-20T11:46:48.275Z,80
2022-11-20T11:49:19.939Z,80
2022-11-20T11:51:52.104Z,80
2022-11-20T11:54:23.545Z,80
2022-11-20T11:56:55.205Z,80
2022-11-20T11:59:26.301Z,80
2022-11-20T12:01:57.496Z,80
2022-11-20T12:04:28.990Z,80
2022-11-20T12:07:06.063Z,80
2022-11-20T12:09:33.475Z,80
2022-11-20T12:12:08.374Z,80
2022-11-20T12:14:42.230Z,80
2022-11-20T12:17:16.093Z,79
2022-11-20T12:19:47.845Z,79
2022-11-20T12:22:22.177Z,79
2022-11-20T12:24:53.082Z,79
2022-11-20T12:27:23.946Z,79
2022-11-20T12:29:55.330Z,79
2022-11-20T12:32:26.427Z,79
2022-11-20T12:34:57.206Z,80
2022-11-20T12:37:28.768Z,79
2022-11-20T12:40:00.130Z,79
2022-11-20T12:42:31.621Z,80
2022-11-20T12:45:03.170Z,80
2022-11-20T12:47:33.428Z,79
2022-11-20T12:50:05.418Z,80
2022-11-20T12:52:37.159Z,80
2022-11-20T12:55:08.619Z,79
2022-11-20T12:57:39.745Z,79
2022-11-20T13:00:10.848Z,79
2022-11-20T13:02:42.570Z,79
2022-11-20T13:05:15.138Z,79
2022-11-20T13:07:46.476Z,80
2022-11-20T13:10:17.208Z,79
2022-11-20T13:12:48.383Z,79
2022-11-20T13:15:19.361Z,79
2022-11-20T13:17:50.639Z,79
2022-11-20T13:20:22.089Z,80
2022-11-20T13:22:53.647Z,80
2022-11-20T13:25:25.859Z,79
2022-11-20T13:27:59.878Z,80
2022-11-20T13:30:29.174Z,80
2022-11-20T13:33:00.126Z,80
2022-11-20T13:35:31.246Z,80
2022-11-20T13:38:02.254Z,79
2022-11-20T13:40:32.009Z,79
2022-11-20T13:43:02.996Z,80
2022-11-20T13:45:33.734Z,80
2022-11-20T13:48:04.694Z,80
2022-11-20T13:50:39.067Z,80
2022-11-20T13:53:09.951Z,80
2022-11-20T13:55:40.670Z,79
2022-11-20T13:58:11.612Z,80
2022-11-20T14:00:43.679Z,80
2022-11-20T14:03:15.023Z,80
2022-11-20T14:05:51.879Z,80
2022-11-20T14:08:22.548Z,79
2022-11-20T14:10:57.557Z,80
2022-11-20T14:13:29.717Z,81
2022-11-20T14:16:01.259Z,81
2022-11-20T14:18:32.626Z,81
2022-11-20T14:21:03.653Z,81
2022-11-20T14:23:34.900Z,80
2022-11-20T14:26:06.864Z,80
2022-11-20T14:28:38.298Z,81
2022-11-20T14:31:09.318Z,80
2022-11-20T14:33:40.333Z,80
2022-11-20T14:36:11.185Z,80
2022-11-20T14:38:43.959Z,80
2022-11-20T14:41:14.267Z,80
2022-11-20T14:43:46.412Z,80
2022-11-20T14:46:17.335Z,79
2022-11-20T14:48:48.655Z,80
2022-11-20T14:51:19.727Z,79
2022-11-20T14:53:50.572Z,79
2022-11-20T14:56:22.042Z,79
2022-11-20T14:58:53.228Z,79
2022-11-20T15:01:24.888Z,80
2022-11-20T15:03:56.158Z,80
2022-11-20T15:06:27.692Z,79
2022-11-20T15:09:00.973Z,79
2022-11-20T15:11:30.529Z,80
2022-11-20T15:14:01.873Z,80
2022-11-20T15:16:33.314Z,80
2022-11-20T15:19:04.446Z,80
2022-11-20T15:21:35.546Z,80
2022-11-20T15:24:07.053Z,80
2022-11-20T15:26:38.684Z,80
2022-11-20T15:29:08.551Z,79
2022-11-20T15:31:39.788Z,79
2022-11-20T15:34:10.659Z,79
2022-11-20T15:36:41.863Z,80
2022-11-20T15:39:13.893Z,81
2022-11-20T15:41:45.400Z,81
2022-11-20T15:44:17.122Z,80
2022-11-20T15:46:47.939Z,79
2022-11-20T15:49:18.709Z,80
2022-11-20T15:51:50.162Z,80
2022-11-20T15:54:21.941Z,80
2022-11-20T15:56:53.395Z,80
2022-11-20T15:59:24.516Z,80
2022-11-20T16:01:55.593Z,80
2022-11-20T16:04:26.690Z,79
2022-11-20T16:06:57.410Z,80
2022-11-20T16:09:29.822Z,79
2022-11-20T16:12:03.030Z,79
2022-11-20T16:14:34.136Z,80
2022-11-20T16:17:04.997Z,80
2022-11-20T16:19:36.279Z,80
2022-11-20T16:22:07.657Z,80
2022-11-20T16:24:38.740Z,80
2022-11-20T16:27:09.484Z,80
2022-11-20T16:29:40.786Z,81
2022-11-20T16:32:12.413Z,81
2022-11-20T16:34:43.787Z,81
2022-11-20T16:37:14.969Z,81
2022-11-20T16:39:46.348Z,81
2022-11-20T16:42:17.290Z,80
2022-11-20T16:44:47.320Z,80
2022-11-20T16:47:18.285Z,81
2022-11-20T16:49:49.893Z,80
2022-11-20T16:52:20.625Z,81
2022-11-20T16:54:51.927Z,81
2022-11-20T16:57:23.029Z,81
2022-11-20T16:59:55.907Z,80
2022-11-20T17:02:25.046Z,81
2022-11-20T17:04:55.984Z,81
2022-11-20T17:07:27.204Z,80
2022-11-20T17:09:59.766Z,81
2022-11-20T17:12:31.748Z,81
2022-11-20T17:15:03.316Z,80
2022-11-20T17:17:34.628Z,81
2022-11-20T17:20:04.854Z,81
2022-11-20T17:22:36.145Z,81
2022-11-20T17:25:07.467Z,80
2022-11-20T17:27:38.872Z,81
2022-11-20T17:30:09.884Z,81
2022-11-20T17:32:40.794Z,81
2022-11-20T17:35:12.200Z,81
2022-11-20T17:37:43.929Z,81
2022-11-20T17:40:15.034Z,81
2022-11-20T17:42:46.220Z,81
2022-11-20T17:45:17.007Z,81
2022-11-20T17:47:48.305Z,80
2022-11-20T17:50:19.608Z,81
2022-11-20T17:52:50.741Z,81
2022-11-20T17:55:21.543Z,80
2022-11-20T17:57:53.627Z,81
2022-11-20T18:00:27.658Z,81
2022-11-20T18:03:00.987Z,81
2022-11-20T18:05:30.505Z,81
2022-11-20T18:08:01.620Z,81
2022-11-20T18:10:32.561Z,81
2022-11-20T18:13:03.561Z,81
2022-11-20T18:15:34.494Z,81
2022-11-20T18:18:05.459Z,81
2022-11-20T18:20:39.746Z,82
2022-11-20T18:23:07.868Z,82
2022-11-20T18:25:39.138Z,82
2022-11-20T18:28:10.093Z,82
2022-11-20T18:30:40.924Z,82
2022-11-20T18:33:11.814Z,81
2022-11-20T18:35:42.665Z,81
2022-11-20T18:38:14.194Z,81
2022-11-20T18:40:45.500Z,81
2022-11-20T18:43:16.849Z,81
2022-11-20T18:45:47.940Z,81
2022-11-20T18:48:19.214Z,81
2022-11-20T18:50:50.302Z,81
2022-11-20T18:53:20.466Z,81
2022-11-20T18:55:51.487Z,81
2022-11-20T18:58:22.409Z,82
2022-11-20T19:00:53.898Z,81
2022-11-20T19:03:24.817Z,82
2022-11-20T19:05:56.382Z,82
2022-11-20T19:08:27.544Z,82
2022-11-20T19:10:58.748Z,81
2022-11-20T19:13:29.866Z,81
2022-11-20T19:16:00.946Z,81
2022-11-20T19:18:32.380Z,81
2022-11-20T19:21:03.226Z,81
2022-11-20T19:23:33.995Z,81
2022-11-20T19:26:05.121Z,81
2022-11-20T19:28:36.064Z,81
2022-11-20T19:31:06.996Z,80
2022-11-20T19:33:37.930Z,80
2022-11-20T19:36:09.162Z,80
2022-11-20T19:38:47.752Z,81
2022-11-20T19:41:15.842Z,81
2022-11-20T19:43:46.702Z,80
2022-11-20T19:46:17.534Z,80
2022-11-20T19:48:52.583Z,81
2022-11-20T19:51:24.534Z,80
2022-11-20T19:53:55.504Z,80
2022-11-20T19:56:26.789Z,80
2022-11-20T19:58:58.442Z,80
2022-11-20T20:01:29.555Z,80
2022-11-20T20:04:01.086Z,80
2022-11-20T20:06:32.445Z,80
2022-11-20T20:09:03.648Z,80
2022-11-20T20:11:37.981Z,80
2022-11-20T20:14:10.918Z,80
2022-11-20T20:16:42.915Z,80
2022-11-20T20:19:15.772Z,80
2022-11-20T20:21:47.159Z,80
2022-11-20T20:24:18.280Z,80
2022-11-20T20:26:51.563Z,80
2022-11-20T20:29:20.838Z,80
2022-11-20T20:31:52.397Z,80
2022-11-20T20:34:23.167Z,80
2022-11-20T20:36:52.539Z,80
2022-11-20T20:39:24.293Z,80
2022-11-20T20:41:57.370Z,80
2022-11-20T20:44:29.557Z,80
2022-11-20T20:47:00.811Z,80
2022-11-20T20:49:31.968Z,80
2022-11-20T20:52:02.940Z,80
2022-11-20T20:54:34.680Z,80
2022-11-20T20:57:05.983Z,80
2022-11-20T20:59:36.761Z,79
2022-11-20T21:02:08.026Z,80
2022-11-20T21:04:39.528Z,80
2022-11-20T21:07:10.924Z,80
2022-11-20T21:09:41.872Z,79
2022-11-20T21:12:12.838Z,80
2022-11-20T21:14:44.694Z,80
2022-11-20T21:17:15.961Z,80
2022-11-20T21:19:47.089Z,80
2022-11-20T21:22:18.042Z,80
2022-11-20T21:24:52.516Z,80
2022-11-20T21:27:23.508Z,80
2022-11-20T21:29:59.816Z,80
2022-11-20T21:32:31.205Z,80
2022-11-20T21:35:03.690Z,80
2022-11-20T21:37:40.845Z,80
2022-11-20T21:40:10.224Z,80
2022-11-20T21:42:41.861Z,79
2022-11-20T21:45:13.758Z,80
2022-11-20T21:47:44.916Z,80
2022-11-20T21:50:16.106Z,80
2022-11-20T21:52:47.609Z,80
2022-11-20T21:55:18.426Z,79
2022-11-20T21:57:49.504Z,80
2022-11-20T22:00:20.770Z,79
2022-11-20T22:02:52.790Z,80
2022-11-20T22:05:23.654Z,79
2022-11-20T22:07:55.652Z,79
2022-11-20T22:10:26.895Z,79
2022-11-20T22:12:58.641Z,78
2022-11-20T22:15:53.426Z,78
2022-11-20T22:18:01.159Z,78
2022-11-20T22:20:31.974Z,79
2022-11-20T22:23:03.287Z,79
2022-11-20T22:25:34.356Z,80
2022-11-20T22:28:05.372Z,79
2022-11-20T22:30:36.793Z,79
2022-11-20T22:33:13.209Z,80
2022-11-20T22:35:39.444Z,80
2022-11-20T22:38:10.310Z,80
2022-11-20T22:40:41.499Z,80
2022-11-20T22:43:12.368Z,80
2022-11-20T22:45:44.207Z,80
2022-11-20T22:48:15.089Z,79
2022-11-20T22:50:46.057Z,80
2022-11-20T22:53:17.041Z,80
2022-11-20T22:55:48.779Z,80
2022-11-20T22:58:20.055Z,80
2022-11-20T23:00:51.253Z,80
2022-11-20T23:03:23.512Z,80
2022-11-20T23:05:54.780Z,79
2022-11-20T23:08:25.871Z,78
2022-11-20T23:10:57.479Z,79
2022-11-20T23:13:28.794Z,79
2022-11-20T23:15:59.714Z,80
2022-11-20T23:18:31.198Z,79
2022-11-20T23:21:02.047Z,79
2022-11-20T23:23:32.753Z,80
2022-11-20T23:26:05.026Z,80
2022-11-20T23:28:35.583Z,79
2022-11-20T23:31:05.712Z,79
2022-11-20T23:33:37.066Z,79
2022-11-20T23:36:07.198Z,79
2022-11-20T23:38:38.317Z,80
2022-11-20T23:41:09.144Z,79
2022-11-20T23:43:40.221Z,79
2022-11-20T23:46:13.873Z,80
2022-11-20T23:48:41.841Z,80
2022-11-20T23:51:12.005Z,79
2022-11-20T23:53:42.582Z,79
2022-11-20T23:56:14.855Z,79
2022-11-20T23:58:45.081Z,78
